sensor_id;sensor_type;location;lat;lon;timestamp;temperature;humidity
43671;DHT22;29267;50.906;7.248;2023-11-18T00:01:16;4.10;99.90
43671;DHT22;29267;50.906;7.248;2023-11-18T00:03:42;4.10;99.90
43671;DHT22;29267;50.906;7.248;2023-11-18T00:06:08;4.10;99.90
43671;DHT22;29267;50.906;7.248;2023-11-18T00:08:34;4.00;99.90
43671;DHT22;29267;50.906;7.248;2023-11-18T00:11:00;4.10;99.90
43671;DHT22;29267;50.906;7.248;2023-11-18T00:13:25;4.00;99.90
43671;DHT22;29267;50.906;7.248;2023-11-18T00:15:54;4.00;99.90
43671;DHT22;29267;50.906;7.248;2023-11-18T00:18:20;4.00;99.90
43671;DHT22;29267;50.906;7.248;2023-11-18T00:20:45;4.00;99.90
43671;DHT22;29267;50.906;7.248;2023-11-18T00:23:11;4.10;99.90
43671;DHT22;29267;50.906;7.248;2023-11-18T00:25:38;4.10;99.90
43671;DHT22;29267;50.906;7.248;2023-11-18T00:28:05;4.00;99.90
43671;DHT22;29267;50.906;7.248;2023-11-18T00:30:33;4.10;99.90
43671;DHT22;29267;50.906;7.248;2023-11-18T00:32:59;4.10;99.90
43671;DHT22;29267;50.906;7.248;2023-11-18T00:35:25;4.10;99.90
43671;DHT22;29267;50.906;7.248;2023-11-18T00:37:51;4.10;99.90
43671;DHT22;29267;50.906;7.248;2023-11-18T00:40:17;4.10;99.90
43671;DHT22;29267;50.906;7.248;2023-11-18T00:42:45;4.10;99.90
43671;DHT22;29267;50.906;7.248;2023-11-18T00:45:11;4.10;99.90
43671;DHT22;29267;50.906;7.248;2023-11-18T00:47:41;4.10;99.90
43671;DHT22;29267;50.906;7.248;2023-11-18T00:50:07;4.10;99.90
43671;DHT22;29267;50.906;7.248;2023-11-18T00:52:34;4.10;99.90
43671;DHT22;29267;50.906;7.248;2023-11-18T00:55:00;4.10;99.90
43671;DHT22;29267;50.906;7.248;2023-11-18T00:57:26;4.10;99.90
43671;DHT22;29267;50.906;7.248;2023-11-18T00:59:52;4.20;99.90
43671;DHT22;29267;50.906;7.248;2023-11-18T01:02:18;4.20;99.90
43671;DHT22;29267;50.906;7.248;2023-11-18T01:04:47;4.20;99.90
43671;DHT22;29267;50.906;7.248;2023-11-18T01:07:12;4.20;99.90
43671;DHT22;29267;50.906;7.248;2023-11-18T01:09:38;4.20;99.90
43671;DHT22;29267;50.906;7.248;2023-11-18T01:12:05;4.20;99.90
43671;DHT22;29267;50.906;7.248;2023-11-18T01:14:36;4.10;99.90
43671;DHT22;29267;50.906;7.248;2023-11-18T01:17:03;4.20;99.90
43671;DHT22;29267;50.906;7.248;2023-11-18T01:19:29;4.10;99.90
43671;DHT22;29267;50.906;7.248;2023-11-18T01:21:55;4.10;99.90
43671;DHT22;29267;50.906;7.248;2023-11-18T01:24:21;4.10;99.90
43671;DHT22;29267;50.906;7.248;2023-11-18T01:26:47;4.10;99.90
43671;DHT22;29267;50.906;7.248;2023-11-18T01:29:13;4.10;99.90
43671;DHT22;29267;50.906;7.248;2023-11-18T01:31:39;4.10;99.90
43671;DHT22;29267;50.906;7.248;2023-11-18T01:34:07;4.10;99.90
43671;DHT22;29267;50.906;7.248;2023-11-18T01:36:37;4.10;99.90
43671;DHT22;29267;50.906;7.248;2023-11-18T01:39:03;4.10;99.90
43671;DHT22;29267;50.906;7.248;2023-11-18T01:41:30;4.10;99.90
43671;DHT22;29267;50.906;7.248;2023-11-18T01:43:58;4.00;99.90
43671;DHT22;29267;50.906;7.248;2023-11-18T01:46:25;4.00;99.90
43671;DHT22;29267;50.906;7.248;2023-11-18T01:48:51;4.10;99.90
43671;DHT22;29267;50.906;7.248;2023-11-18T01:51:18;4.10;99.90
43671;DHT22;29267;50.906;7.248;2023-11-18T01:53:47;4.10;99.90
43671;DHT22;29267;50.906;7.248;2023-11-18T01:56:15;4.10;99.90
43671;DHT22;29267;50.906;7.248;2023-11-18T01:58:41;4.00;99.90
43671;DHT22;29267;50.906;7.248;2023-11-18T02:01:08;4.10;99.90
43671;DHT22;29267;50.906;7.248;2023-11-18T02:03:35;4.20;99.90
43671;DHT22;29267;50.906;7.248;2023-11-18T02:06:03;4.10;99.90
43671;DHT22;29267;50.906;7.248;2023-11-18T02:08:30;4.20;99.90
43671;DHT22;29267;50.906;7.248;2023-11-18T02:11:17;4.20;99.90
43671;DHT22;29267;50.906;7.248;2023-11-18T02:13:47;4.20;99.90
43671;DHT22;29267;50.906;7.248;2023-11-18T02:16:14;4.20;99.90
43671;DHT22;29267;50.906;7.248;2023-11-18T02:18:42;4.20;99.90
43671;DHT22;29267;50.906;7.248;2023-11-18T02:21:10;4.20;99.90
43671;DHT22;29267;50.906;7.248;2023-11-18T02:23:37;4.20;99.90
43671;DHT22;29267;50.906;7.248;2023-11-18T02:26:03;4.20;99.90
43671;DHT22;29267;50.906;7.248;2023-11-18T02:28:31;4.20;99.90
43671;DHT22;29267;50.906;7.248;2023-11-18T02:31:03;4.20;99.90
43671;DHT22;29267;50.906;7.248;2023-11-18T02:33:35;4.20;99.90
43671;DHT22;29267;50.906;7.248;2023-11-18T02:36:10;4.20;99.90
43671;DHT22;29267;50.906;7.248;2023-11-18T02:38:44;4.30;99.90
43671;DHT22;29267;50.906;7.248;2023-11-18T02:41:13;4.30;99.90
43671;DHT22;29267;50.906;7.248;2023-11-18T02:43:40;4.30;99.90
43671;DHT22;29267;50.906;7.248;2023-11-18T02:46:09;4.30;99.90
43671;DHT22;29267;50.906;7.248;2023-11-18T02:48:38;4.30;99.90
43671;DHT22;29267;50.906;7.248;2023-11-18T02:51:04;4.30;99.90
43671;DHT22;29267;50.906;7.248;2023-11-18T02:53:33;4.30;99.90
43671;DHT22;29267;50.906;7.248;2023-11-18T02:55:59;4.30;99.90
43671;DHT22;29267;50.906;7.248;2023-11-18T02:58:29;4.30;99.90
43671;DHT22;29267;50.906;7.248;2023-11-18T03:00:55;4.30;99.90
43671;DHT22;29267;50.906;7.248;2023-11-18T03:03:21;4.30;99.90
43671;DHT22;29267;50.906;7.248;2023-11-18T03:05:46;4.30;99.90
43671;DHT22;29267;50.906;7.248;2023-11-18T03:08:15;4.30;99.90
43671;DHT22;29267;50.906;7.248;2023-11-18T03:10:41;4.30;99.90
43671;DHT22;29267;50.906;7.248;2023-11-18T03:13:10;4.30;99.90
43671;DHT22;29267;50.906;7.248;2023-11-18T03:15:38;4.30;99.90
43671;DHT22;29267;50.906;7.248;2023-11-18T03:18:04;4.30;99.90
43671;DHT22;29267;50.906;7.248;2023-11-18T03:20:32;4.30;99.90
43671;DHT22;29267;50.906;7.248;2023-11-18T03:23:00;4.20;99.90
43671;DHT22;29267;50.906;7.248;2023-11-18T03:25:28;4.20;99.90
43671;DHT22;29267;50.906;7.248;2023-11-18T03:27:54;4.20;99.90
43671;DHT22;29267;50.906;7.248;2023-11-18T03:30:20;4.20;99.90
43671;DHT22;29267;50.906;7.248;2023-11-18T03:32:46;4.30;99.90
43671;DHT22;29267;50.906;7.248;2023-11-18T03:35:11;4.20;99.90
43671;DHT22;29267;50.906;7.248;2023-11-18T03:37:38;4.20;99.90
43671;DHT22;29267;50.906;7.248;2023-11-18T03:40:09;4.20;99.90
43671;DHT22;29267;50.906;7.248;2023-11-18T03:42:35;4.20;99.90
43671;DHT22;29267;50.906;7.248;2023-11-18T03:45:03;4.20;99.90
43671;DHT22;29267;50.906;7.248;2023-11-18T03:47:29;4.20;99.90
43671;DHT22;29267;50.906;7.248;2023-11-18T03:49:55;4.20;99.90
43671;DHT22;29267;50.906;7.248;2023-11-18T03:52:21;4.20;99.90
43671;DHT22;29267;50.906;7.248;2023-11-18T03:54:47;4.20;99.90
43671;DHT22;29267;50.906;7.248;2023-11-18T03:57:12;4.10;99.90
43671;DHT22;29267;50.906;7.248;2023-11-18T03:59:41;4.10;99.90
43671;DHT22;29267;50.906;7.248;2023-11-18T04:02:08;4.10;99.90
43671;DHT22;29267;50.906;7.248;2023-11-18T04:04:34;4.10;99.90
43671;DHT22;29267;50.906;7.248;2023-11-18T04:07:00;4.10;99.90
43671;DHT22;29267;50.906;7.248;2023-11-18T04:09:27;4.20;99.90
43671;DHT22;29267;50.906;7.248;2023-11-18T04:11:53;4.20;99.90
43671;DHT22;29267;50.906;7.248;2023-11-18T04:14:18;4.20;99.90
43671;DHT22;29267;50.906;7.248;2023-11-18T04:16:45;4.20;99.90
43671;DHT22;29267;50.906;7.248;2023-11-18T04:19:11;4.20;99.90
43671;DHT22;29267;50.906;7.248;2023-11-18T04:21:37;4.20;99.90
43671;DHT22;29267;50.906;7.248;2023-11-18T04:24:04;4.20;99.90
43671;DHT22;29267;50.906;7.248;2023-11-18T04:26:31;4.20;99.90
43671;DHT22;29267;50.906;7.248;2023-11-18T04:28:57;4.20;99.90
43671;DHT22;29267;50.906;7.248;2023-11-18T04:31:24;4.20;99.90
43671;DHT22;29267;50.906;7.248;2023-11-18T04:33:50;4.10;99.90
43671;DHT22;29267;50.906;7.248;2023-11-18T04:36:16;4.10;99.90
43671;DHT22;29267;50.906;7.248;2023-11-18T04:38:42;4.10;99.90
43671;DHT22;29267;50.906;7.248;2023-11-18T04:41:09;4.10;99.90
43671;DHT22;29267;50.906;7.248;2023-11-18T04:43:35;4.00;99.90
43671;DHT22;29267;50.906;7.248;2023-11-18T04:46:01;4.00;99.90
43671;DHT22;29267;50.906;7.248;2023-11-18T04:48:26;3.90;99.90
43671;DHT22;29267;50.906;7.248;2023-11-18T04:50:52;3.80;99.90
43671;DHT22;29267;50.906;7.248;2023-11-18T04:53:18;3.80;99.90
43671;DHT22;29267;50.906;7.248;2023-11-18T04:55:44;3.70;99.90
43671;DHT22;29267;50.906;7.248;2023-11-18T04:58:10;3.70;99.90
43671;DHT22;29267;50.906;7.248;2023-11-18T05:00:39;3.70;99.90
43671;DHT22;29267;50.906;7.248;2023-11-18T05:03:05;3.60;99.90
43671;DHT22;29267;50.906;7.248;2023-11-18T05:05:38;3.70;99.90
43671;DHT22;29267;50.906;7.248;2023-11-18T05:08:05;3.60;99.90
43671;DHT22;29267;50.906;7.248;2023-11-18T05:10:34;3.60;99.90
43671;DHT22;29267;50.906;7.248;2023-11-18T05:13:01;3.60;99.90
43671;DHT22;29267;50.906;7.248;2023-11-18T05:15:26;3.50;99.90
43671;DHT22;29267;50.906;7.248;2023-11-18T05:17:53;3.50;99.90
43671;DHT22;29267;50.906;7.248;2023-11-18T05:20:20;3.50;99.90
43671;DHT22;29267;50.906;7.248;2023-11-18T05:22:46;3.50;99.90
43671;DHT22;29267;50.906;7.248;2023-11-18T05:25:12;3.50;99.90
43671;DHT22;29267;50.906;7.248;2023-11-18T05:27:38;3.50;99.90
43671;DHT22;29267;50.906;7.248;2023-11-18T05:30:10;3.50;99.90
43671;DHT22;29267;50.906;7.248;2023-11-18T05:32:37;3.40;99.90
43671;DHT22;29267;50.906;7.248;2023-11-18T05:35:04;3.50;99.90
43671;DHT22;29267;50.906;7.248;2023-11-18T05:37:30;3.50;99.90
43671;DHT22;29267;50.906;7.248;2023-11-18T05:40:02;3.40;99.90
43671;DHT22;29267;50.906;7.248;2023-11-18T05:42:36;3.40;99.90
43671;DHT22;29267;50.906;7.248;2023-11-18T05:45:08;3.40;99.90
43671;DHT22;29267;50.906;7.248;2023-11-18T05:47:42;3.40;99.90
43671;DHT22;29267;50.906;7.248;2023-11-18T05:50:08;3.40;99.90
43671;DHT22;29267;50.906;7.248;2023-11-18T05:52:35;3.40;99.90
43671;DHT22;29267;50.906;7.248;2023-11-18T05:55:01;3.40;99.90
43671;DHT22;29267;50.906;7.248;2023-11-18T05:57:26;3.40;99.90
43671;DHT22;29267;50.906;7.248;2023-11-18T05:59:52;3.50;99.90
43671;DHT22;29267;50.906;7.248;2023-11-18T06:02:19;3.50;99.90
43671;DHT22;29267;50.906;7.248;2023-11-18T06:04:45;3.50;99.90
43671;DHT22;29267;50.906;7.248;2023-11-18T06:07:11;3.50;99.90
43671;DHT22;29267;50.906;7.248;2023-11-18T06:09:40;3.60;99.90
43671;DHT22;29267;50.906;7.248;2023-11-18T06:12:08;3.60;99.90
43671;DHT22;29267;50.906;7.248;2023-11-18T06:14:36;3.60;99.90
43671;DHT22;29267;50.906;7.248;2023-11-18T06:17:03;3.70;99.90
43671;DHT22;29267;50.906;7.248;2023-11-18T06:19:28;3.60;99.90
43671;DHT22;29267;50.906;7.248;2023-11-18T06:21:54;3.60;99.90
43671;DHT22;29267;50.906;7.248;2023-11-18T06:24:20;3.70;99.90
43671;DHT22;29267;50.906;7.248;2023-11-18T06:26:47;3.70;99.90
43671;DHT22;29267;50.906;7.248;2023-11-18T06:29:14;3.70;99.90
43671;DHT22;29267;50.906;7.248;2023-11-18T06:31:41;3.70;99.90
43671;DHT22;29267;50.906;7.248;2023-11-18T06:34:08;3.80;99.90
43671;DHT22;29267;50.906;7.248;2023-11-18T06:36:34;3.80;99.90
43671;DHT22;29267;50.906;7.248;2023-11-18T06:39:00;3.80;99.90
43671;DHT22;29267;50.906;7.248;2023-11-18T06:41:26;3.80;99.90
43671;DHT22;29267;50.906;7.248;2023-11-18T06:43:59;3.90;99.90
43671;DHT22;29267;50.906;7.248;2023-11-18T06:46:29;3.90;99.90
43671;DHT22;29267;50.906;7.248;2023-11-18T06:48:58;3.90;99.90
43671;DHT22;29267;50.906;7.248;2023-11-18T06:51:26;3.90;99.90
43671;DHT22;29267;50.906;7.248;2023-11-18T06:53:56;3.90;99.90
43671;DHT22;29267;50.906;7.248;2023-11-18T06:56:26;4.00;99.90
43671;DHT22;29267;50.906;7.248;2023-11-18T06:58:53;3.90;99.90
43671;DHT22;29267;50.906;7.248;2023-11-18T07:01:19;3.90;99.90
43671;DHT22;29267;50.906;7.248;2023-11-18T07:03:47;3.90;99.90
43671;DHT22;29267;50.906;7.248;2023-11-18T07:06:19;3.90;99.90
43671;DHT22;29267;50.906;7.248;2023-11-18T07:08:51;4.00;99.90
43671;DHT22;29267;50.906;7.248;2023-11-18T07:11:17;4.00;99.90
43671;DHT22;29267;50.906;7.248;2023-11-18T07:13:44;4.00;99.90
43671;DHT22;29267;50.906;7.248;2023-11-18T07:16:09;4.00;99.90
43671;DHT22;29267;50.906;7.248;2023-11-18T07:18:36;4.10;99.90
43671;DHT22;29267;50.906;7.248;2023-11-18T07:21:05;4.10;99.90
43671;DHT22;29267;50.906;7.248;2023-11-18T07:23:34;4.20;99.90
43671;DHT22;29267;50.906;7.248;2023-11-18T07:26:00;4.20;99.90
43671;DHT22;29267;50.906;7.248;2023-11-18T07:28:26;4.20;99.90
43671;DHT22;29267;50.906;7.248;2023-11-18T07:30:53;4.30;99.90
43671;DHT22;29267;50.906;7.248;2023-11-18T07:33:19;4.30;99.90
43671;DHT22;29267;50.906;7.248;2023-11-18T07:35:46;4.40;99.90
43671;DHT22;29267;50.906;7.248;2023-11-18T07:38:12;4.40;99.90
43671;DHT22;29267;50.906;7.248;2023-11-18T07:40:38;4.40;99.90
43671;DHT22;29267;50.906;7.248;2023-11-18T07:43:08;4.50;99.90
43671;DHT22;29267;50.906;7.248;2023-11-18T07:45:35;4.50;99.90
43671;DHT22;29267;50.906;7.248;2023-11-18T07:48:07;4.60;99.90
43671;DHT22;29267;50.906;7.248;2023-11-18T07:50:36;4.60;99.90
43671;DHT22;29267;50.906;7.248;2023-11-18T07:53:05;4.70;99.90
43671;DHT22;29267;50.906;7.248;2023-11-18T07:55:32;4.70;99.90
43671;DHT22;29267;50.906;7.248;2023-11-18T07:58:11;4.80;99.90
43671;DHT22;29267;50.906;7.248;2023-11-18T08:00:41;4.80;99.90
43671;DHT22;29267;50.906;7.248;2023-11-18T08:03:11;4.80;99.90
43671;DHT22;29267;50.906;7.248;2023-11-18T08:05:44;4.80;99.90
43671;DHT22;29267;50.906;7.248;2023-11-18T08:08:14;4.90;99.90
43671;DHT22;29267;50.906;7.248;2023-11-18T08:10:43;4.90;99.90
43671;DHT22;29267;50.906;7.248;2023-11-18T08:13:10;5.00;99.90
43671;DHT22;29267;50.906;7.248;2023-11-18T08:15:41;5.10;99.90
43671;DHT22;29267;50.906;7.248;2023-11-18T08:18:07;5.10;99.90
43671;DHT22;29267;50.906;7.248;2023-11-18T08:20:35;5.10;99.90
43671;DHT22;29267;50.906;7.248;2023-11-18T08:23:01;5.10;99.90
43671;DHT22;29267;50.906;7.248;2023-11-18T08:25:27;5.20;99.90
43671;DHT22;29267;50.906;7.248;2023-11-18T08:27:53;5.30;99.90
43671;DHT22;29267;50.906;7.248;2023-11-18T08:30:18;5.30;99.90
43671;DHT22;29267;50.906;7.248;2023-11-18T08:32:46;5.40;99.90
43671;DHT22;29267;50.906;7.248;2023-11-18T08:35:13;5.40;99.90
43671;DHT22;29267;50.906;7.248;2023-11-18T08:37:40;5.50;99.90
43671;DHT22;29267;50.906;7.248;2023-11-18T08:40:07;5.50;99.90
43671;DHT22;29267;50.906;7.248;2023-11-18T08:42:47;5.60;99.90
43671;DHT22;29267;50.906;7.248;2023-11-18T08:45:22;5.70;99.90
43671;DHT22;29267;50.906;7.248;2023-11-18T08:47:53;5.70;99.90
43671;DHT22;29267;50.906;7.248;2023-11-18T08:50:19;5.80;99.90
43671;DHT22;29267;50.906;7.248;2023-11-18T08:52:46;5.80;99.90
43671;DHT22;29267;50.906;7.248;2023-11-18T08:55:18;5.90;99.90
43671;DHT22;29267;50.906;7.248;2023-11-18T08:57:51;6.00;99.90
43671;DHT22;29267;50.906;7.248;2023-11-18T09:00:30;6.00;99.90
43671;DHT22;29267;50.906;7.248;2023-11-18T09:03:15;6.10;99.90
43671;DHT22;29267;50.906;7.248;2023-11-18T09:08:33;6.20;99.90
43671;DHT22;29267;50.906;7.248;2023-11-18T09:11:03;6.30;99.90
43671;DHT22;29267;50.906;7.248;2023-11-18T09:13:30;6.40;99.90
43671;DHT22;29267;50.906;7.248;2023-11-18T09:15:58;6.40;99.90
43671;DHT22;29267;50.906;7.248;2023-11-18T09:18:26;6.40;99.90
43671;DHT22;29267;50.906;7.248;2023-11-18T09:20:53;6.40;99.90
43671;DHT22;29267;50.906;7.248;2023-11-18T09:23:25;6.50;99.90
43671;DHT22;29267;50.906;7.248;2023-11-18T09:25:53;6.60;99.90
43671;DHT22;29267;50.906;7.248;2023-11-18T09:28:24;6.60;99.90
43671;DHT22;29267;50.906;7.248;2023-11-18T09:30:50;6.70;99.90
43671;DHT22;29267;50.906;7.248;2023-11-18T09:33:23;6.80;99.90
43671;DHT22;29267;50.906;7.248;2023-11-18T09:36:02;6.90;99.90
43671;DHT22;29267;50.906;7.248;2023-11-18T09:38:32;7.00;99.90
43671;DHT22;29267;50.906;7.248;2023-11-18T09:40:59;7.00;99.90
43671;DHT22;29267;50.906;7.248;2023-11-18T09:43:29;7.10;99.90
43671;DHT22;29267;50.906;7.248;2023-11-18T09:46:04;7.10;99.90
43671;DHT22;29267;50.906;7.248;2023-11-18T09:48:47;7.30;99.90
43671;DHT22;29267;50.906;7.248;2023-11-18T09:51:20;7.30;99.90
43671;DHT22;29267;50.906;7.248;2023-11-18T09:53:53;7.30;99.90
43671;DHT22;29267;50.906;7.248;2023-11-18T09:59:11;7.30;99.90
43671;DHT22;29267;50.906;7.248;2023-11-18T10:01:43;7.30;99.90
43671;DHT22;29267;50.906;7.248;2023-11-18T10:04:14;7.30;99.90
43671;DHT22;29267;50.906;7.248;2023-11-18T10:06:44;7.30;99.90
43671;DHT22;29267;50.906;7.248;2023-11-18T10:09:10;7.20;99.90
43671;DHT22;29267;50.906;7.248;2023-11-18T10:11:49;7.30;99.90
43671;DHT22;29267;50.906;7.248;2023-11-18T10:14:15;7.30;99.90
43671;DHT22;29267;50.906;7.248;2023-11-18T10:16:44;7.40;99.90
43671;DHT22;29267;50.906;7.248;2023-11-18T10:19:13;7.50;99.90
43671;DHT22;29267;50.906;7.248;2023-11-18T10:21:40;7.50;99.90
43671;DHT22;29267;50.906;7.248;2023-11-18T10:24:07;7.50;99.90
43671;DHT22;29267;50.906;7.248;2023-11-18T10:26:53;7.50;99.90
43671;DHT22;29267;50.906;7.248;2023-11-18T10:29:19;7.60;99.90
43671;DHT22;29267;50.906;7.248;2023-11-18T10:31:45;7.60;99.90
43671;DHT22;29267;50.906;7.248;2023-11-18T10:34:12;7.60;99.90
43671;DHT22;29267;50.906;7.248;2023-11-18T10:36:41;7.50;99.90
43671;DHT22;29267;50.906;7.248;2023-11-18T10:39:12;7.50;99.90
43671;DHT22;29267;50.906;7.248;2023-11-18T10:41:42;7.50;99.90
43671;DHT22;29267;50.906;7.248;2023-11-18T10:44:09;7.50;99.90
43671;DHT22;29267;50.906;7.248;2023-11-18T10:46:43;7.40;99.90
43671;DHT22;29267;50.906;7.248;2023-11-18T10:49:16;7.50;99.90
43671;DHT22;29267;50.906;7.248;2023-11-18T10:51:44;7.60;99.90
43671;DHT22;29267;50.906;7.248;2023-11-18T10:54:13;7.60;99.90
43671;DHT22;29267;50.906;7.248;2023-11-18T10:56:51;7.60;99.90
43671;DHT22;29267;50.906;7.248;2023-11-18T10:59:32;7.60;99.90
43671;DHT22;29267;50.906;7.248;2023-11-18T11:01:58;7.60;99.90
43671;DHT22;29267;50.906;7.248;2023-11-18T11:04:24;7.50;99.90
43671;DHT22;29267;50.906;7.248;2023-11-18T11:06:50;7.50;99.90
43671;DHT22;29267;50.906;7.248;2023-11-18T11:09:23;7.50;99.90
43671;DHT22;29267;50.906;7.248;2023-11-18T11:12:07;7.40;99.90
43671;DHT22;29267;50.906;7.248;2023-11-18T11:14:59;7.40;99.90
43671;DHT22;29267;50.906;7.248;2023-11-18T11:17:29;7.40;99.90
43671;DHT22;29267;50.906;7.248;2023-11-18T11:20:08;7.40;99.90
43671;DHT22;29267;50.906;7.248;2023-11-18T11:28:23;7.40;99.90
43671;DHT22;29267;50.906;7.248;2023-11-18T11:31:16;7.40;99.90
43671;DHT22;29267;50.906;7.248;2023-11-18T11:34:17;7.30;99.90
43671;DHT22;29267;50.906;7.248;2023-11-18T11:36:51;7.40;99.90
43671;DHT22;29267;50.906;7.248;2023-11-18T11:39:18;7.40;99.90
43671;DHT22;29267;50.906;7.248;2023-11-18T11:41:52;7.50;99.90
43671;DHT22;29267;50.906;7.248;2023-11-18T11:44:22;7.50;99.90
43671;DHT22;29267;50.906;7.248;2023-11-18T11:46:55;7.60;99.90
43671;DHT22;29267;50.906;7.248;2023-11-18T11:49:22;7.60;99.90
43671;DHT22;29267;50.906;7.248;2023-11-18T11:54:45;7.50;99.90
43671;DHT22;29267;50.906;7.248;2023-11-18T11:57:10;7.60;99.90
43671;DHT22;29267;50.906;7.248;2023-11-18T12:02:25;7.50;99.90
43671;DHT22;29267;50.906;7.248;2023-11-18T12:04:57;7.50;99.90
43671;DHT22;29267;50.906;7.248;2023-11-18T12:07:32;7.40;99.90
43671;DHT22;29267;50.906;7.248;2023-11-18T12:10:08;7.50;99.90
43671;DHT22;29267;50.906;7.248;2023-11-18T12:12:39;7.50;99.90
43671;DHT22;29267;50.906;7.248;2023-11-18T12:15:05;7.50;99.90
43671;DHT22;29267;50.906;7.248;2023-11-18T12:20:42;7.60;99.90
43671;DHT22;29267;50.906;7.248;2023-11-18T12:23:29;7.60;99.90
43671;DHT22;29267;50.906;7.248;2023-11-18T12:25:56;7.70;99.90
43671;DHT22;29267;50.906;7.248;2023-11-18T12:28:28;7.70;99.90
43671;DHT22;29267;50.906;7.248;2023-11-18T12:30:56;7.60;99.90
43671;DHT22;29267;50.906;7.248;2023-11-18T12:33:23;7.60;99.90
43671;DHT22;29267;50.906;7.248;2023-11-18T12:41:36;7.70;99.90
43671;DHT22;29267;50.906;7.248;2023-11-18T12:46:53;7.70;99.90
43671;DHT22;29267;50.906;7.248;2023-11-18T12:49:22;7.70;99.90
43671;DHT22;29267;50.906;7.248;2023-11-18T12:51:53;7.70;99.90
43671;DHT22;29267;50.906;7.248;2023-11-18T12:54:23;7.60;99.90
43671;DHT22;29267;50.906;7.248;2023-11-18T12:56:56;7.70;99.90
43671;DHT22;29267;50.906;7.248;2023-11-18T12:59:21;7.70;99.90
43671;DHT22;29267;50.906;7.248;2023-11-18T13:01:51;7.60;99.90
43671;DHT22;29267;50.906;7.248;2023-11-18T13:04:19;7.60;99.90
43671;DHT22;29267;50.906;7.248;2023-11-18T13:06:48;7.60;99.90
43671;DHT22;29267;50.906;7.248;2023-11-18T13:09:15;7.60;99.90
43671;DHT22;29267;50.906;7.248;2023-11-18T13:11:58;7.60;99.90
43671;DHT22;29267;50.906;7.248;2023-11-18T13:14:28;7.60;99.90
43671;DHT22;29267;50.906;7.248;2023-11-18T13:16:56;7.60;99.90
43671;DHT22;29267;50.906;7.248;2023-11-18T13:21:55;7.60;99.90
43671;DHT22;29267;50.906;7.248;2023-11-18T13:24:21;7.50;99.90
43671;DHT22;29267;50.906;7.248;2023-11-18T13:26:47;7.50;99.90
43671;DHT22;29267;50.906;7.248;2023-11-18T13:29:14;7.50;99.90
43671;DHT22;29267;50.906;7.248;2023-11-18T13:31:41;7.60;99.90
43671;DHT22;29267;50.906;7.248;2023-11-18T13:34:08;7.60;99.90
43671;DHT22;29267;50.906;7.248;2023-11-18T13:36:36;7.50;99.90
43671;DHT22;29267;50.906;7.248;2023-11-18T13:39:02;7.50;99.90
43671;DHT22;29267;50.906;7.248;2023-11-18T13:41:32;7.50;99.90
43671;DHT22;29267;50.906;7.248;2023-11-18T13:43:58;7.50;99.90
43671;DHT22;29267;50.906;7.248;2023-11-18T13:46:27;7.50;99.90
43671;DHT22;29267;50.906;7.248;2023-11-18T13:48:53;7.50;99.90
43671;DHT22;29267;50.906;7.248;2023-11-18T13:51:20;7.60;99.90
43671;DHT22;29267;50.906;7.248;2023-11-18T13:53:47;7.50;99.90
43671;DHT22;29267;50.906;7.248;2023-11-18T13:56:13;7.60;99.90
43671;DHT22;29267;50.906;7.248;2023-11-18T13:58:42;7.60;99.90
43671;DHT22;29267;50.906;7.248;2023-11-18T14:01:11;7.50;99.90
43671;DHT22;29267;50.906;7.248;2023-11-18T14:03:41;7.50;99.90
43671;DHT22;29267;50.906;7.248;2023-11-18T14:06:10;7.60;99.90
43671;DHT22;29267;50.906;7.248;2023-11-18T14:08:37;7.50;99.90
43671;DHT22;29267;50.906;7.248;2023-11-18T14:11:03;7.50;99.90
43671;DHT22;29267;50.906;7.248;2023-11-18T14:13:31;7.50;99.90
43671;DHT22;29267;50.906;7.248;2023-11-18T14:15:58;7.50;99.90
43671;DHT22;29267;50.906;7.248;2023-11-18T14:18:25;7.60;99.90
43671;DHT22;29267;50.906;7.248;2023-11-18T14:20:51;7.60;99.90
43671;DHT22;29267;50.906;7.248;2023-11-18T14:23:17;7.50;99.90
43671;DHT22;29267;50.906;7.248;2023-11-18T14:25:44;7.50;99.90
43671;DHT22;29267;50.906;7.248;2023-11-18T14:28:11;7.50;99.90
43671;DHT22;29267;50.906;7.248;2023-11-18T14:30:38;7.50;99.90
43671;DHT22;29267;50.906;7.248;2023-11-18T14:33:04;7.50;99.90
43671;DHT22;29267;50.906;7.248;2023-11-18T14:35:30;7.50;99.90
43671;DHT22;29267;50.906;7.248;2023-11-18T14:37:55;7.60;99.90
43671;DHT22;29267;50.906;7.248;2023-11-18T14:40:24;7.50;99.90
43671;DHT22;29267;50.906;7.248;2023-11-18T14:42:51;7.50;99.90
43671;DHT22;29267;50.906;7.248;2023-11-18T14:45:17;7.50;99.90
43671;DHT22;29267;50.906;7.248;2023-11-18T14:47:44;7.50;99.90
43671;DHT22;29267;50.906;7.248;2023-11-18T14:50:11;7.50;99.90
43671;DHT22;29267;50.906;7.248;2023-11-18T14:52:50;7.50;99.90
43671;DHT22;29267;50.906;7.248;2023-11-18T14:55:17;7.50;99.90
43671;DHT22;29267;50.906;7.248;2023-11-18T14:57:44;7.50;99.90
43671;DHT22;29267;50.906;7.248;2023-11-18T15:00:12;7.40;99.90
43671;DHT22;29267;50.906;7.248;2023-11-18T15:02:48;7.40;99.90
43671;DHT22;29267;50.906;7.248;2023-11-18T15:05:15;7.40;99.90
43671;DHT22;29267;50.906;7.248;2023-11-18T15:07:54;7.30;99.90
43671;DHT22;29267;50.906;7.248;2023-11-18T15:10:25;7.30;99.90
43671;DHT22;29267;50.906;7.248;2023-11-18T15:12:53;7.30;99.90
43671;DHT22;29267;50.906;7.248;2023-11-18T15:15:25;7.30;99.90
43671;DHT22;29267;50.906;7.248;2023-11-18T15:18:02;7.30;99.90
43671;DHT22;29267;50.906;7.248;2023-11-18T15:20:35;7.20;99.90
43671;DHT22;29267;50.906;7.248;2023-11-18T15:23:04;7.20;99.90
43671;DHT22;29267;50.906;7.248;2023-11-18T15:25:30;7.20;99.90
43671;DHT22;29267;50.906;7.248;2023-11-18T15:27:56;7.20;99.90
43671;DHT22;29267;50.906;7.248;2023-11-18T15:30:22;7.20;99.90
43671;DHT22;29267;50.906;7.248;2023-11-18T15:32:50;7.20;99.90
43671;DHT22;29267;50.906;7.248;2023-11-18T15:35:17;7.20;99.90
43671;DHT22;29267;50.906;7.248;2023-11-18T15:37:44;7.20;99.90
43671;DHT22;29267;50.906;7.248;2023-11-18T15:40:14;7.20;99.90
43671;DHT22;29267;50.906;7.248;2023-11-18T15:42:43;7.20;99.90
43671;DHT22;29267;50.906;7.248;2023-11-18T15:45:14;7.20;99.90
43671;DHT22;29267;50.906;7.248;2023-11-18T15:47:41;7.20;99.90
43671;DHT22;29267;50.906;7.248;2023-11-18T15:50:11;7.10;99.90
43671;DHT22;29267;50.906;7.248;2023-11-18T15:52:48;7.20;99.90
43671;DHT22;29267;50.906;7.248;2023-11-18T15:55:15;7.10;99.90
43671;DHT22;29267;50.906;7.248;2023-11-18T15:57:44;7.20;99.90
43671;DHT22;29267;50.906;7.248;2023-11-18T16:00:11;7.10;99.90
43671;DHT22;29267;50.906;7.248;2023-11-18T16:02:44;7.20;99.90
43671;DHT22;29267;50.906;7.248;2023-11-18T16:05:12;7.20;99.90
43671;DHT22;29267;50.906;7.248;2023-11-18T16:07:41;7.20;99.90
43671;DHT22;29267;50.906;7.248;2023-11-18T16:10:08;7.20;99.90
43671;DHT22;29267;50.906;7.248;2023-11-18T16:12:34;7.20;99.90
43671;DHT22;29267;50.906;7.248;2023-11-18T16:15:00;7.10;99.90
43671;DHT22;29267;50.906;7.248;2023-11-18T16:17:30;7.10;99.90
43671;DHT22;29267;50.906;7.248;2023-11-18T16:19:58;7.10;99.90
43671;DHT22;29267;50.906;7.248;2023-11-18T16:22:24;7.10;99.90
43671;DHT22;29267;50.906;7.248;2023-11-18T16:24:50;7.10;99.90